<?xml version="1.0" encoding="UTF-8"?><gpx creator="Wikiloc - https://www.wikiloc.com" version="1.1" xmlns="http://www.topografix.com/GPX/1/1" xmlns:xsi="http://www.w3.org/2001/XMLSchema-instance" xsi:schemaLocation="http://www.topografix.com/GPX/1/1 http://www.topografix.com/GPX/1/1/gpx.xsd"><metadata><name>Wikiloc - Paseos Rurales - Ducado de Feria</name><author><name>Red Extremeña de Desarrollo Rural (REDEX)</name><link href="https://www.wikiloc.com/wikiloc/user.do?id=2006209"><text>Red Extremeña de Desarrollo Rural (REDEX) on Wikiloc</text></link></author><link href="https://www.wikiloc.com/walking-trails/paseos-rurales-ducado-de-feria-30933162"><text>Paseos Rurales - Ducado de Feria on Wikiloc</text></link><time>2018-11-29T17:54:54Z</time></metadata><trk><name>Paseos Rurales - Ducado de Feria</name><cmt></cmt><desc></desc><trkseg><trkpt lat="38.513076" lon="-6.564172"><ele>574.421</ele><time>2018-11-29T17:48:11Z</time></trkpt><trkpt lat="38.513108" lon="-6.564258"><ele>575.041</ele><time>2018-11-29T17:48:12Z</time></trkpt><trkpt lat="38.513111" lon="-6.564352"><ele>575.505</ele><time>2018-11-29T17:48:13Z</time></trkpt><trkpt lat="38.513111" lon="-6.564416"><ele>575.808</ele><time>2018-11-29T17:48:13Z</time></trkpt><trkpt lat="38.513137" lon="-6.564459"><ele>576.485</ele><time>2018-11-29T17:48:14Z</time></trkpt><trkpt lat="38.513167" lon="-6.564513"><ele>576.852</ele><time>2018-11-29T17:48:14Z</time></trkpt><trkpt lat="38.513186" lon="-6.564578"><ele>577.431</ele><time>2018-11-29T17:48:15Z</time></trkpt><trkpt lat="38.513127" lon="-6.564855"><ele>579.065</ele><time>2018-11-29T17:48:17Z</time></trkpt><trkpt lat="38.513115" lon="-6.565026"><ele>580.195</ele><time>2018-11-29T17:48:20Z</time></trkpt><trkpt lat="38.513066" lon="-6.565266"><ele>581.243</ele><time>2018-11-29T17:48:22Z</time></trkpt><trkpt lat="38.512962" lon="-6.565535"><ele>582.318</ele><time>2018-11-29T17:48:24Z</time></trkpt><trkpt lat="38.512948" lon="-6.565701"><ele>584.384</ele><time>2018-11-29T17:48:25Z</time></trkpt><trkpt lat="38.512938" lon="-6.565815"><ele>585.765</ele><time>2018-11-29T17:48:26Z</time></trkpt><trkpt lat="38.512914" lon="-6.565982"><ele>587.668</ele><time>2018-11-29T17:48:27Z</time></trkpt><trkpt lat="38.512879" lon="-6.566381"><ele>592.014</ele><time>2018-11-29T17:48:31Z</time></trkpt><trkpt lat="38.512860" lon="-6.566526"><ele>593.208</ele><time>2018-11-29T17:48:32Z</time></trkpt><trkpt lat="38.512847" lon="-6.566662"><ele>594.479</ele><time>2018-11-29T17:48:33Z</time></trkpt><trkpt lat="38.512779" lon="-6.567010"><ele>596.676</ele><time>2018-11-29T17:48:37Z</time></trkpt><trkpt lat="38.512758" lon="-6.567123"><ele>597.755</ele><time>2018-11-29T17:48:38Z</time></trkpt><trkpt lat="38.512692" lon="-6.567361"><ele>599.399</ele><time>2018-11-29T17:48:40Z</time></trkpt><trkpt lat="38.512589" lon="-6.567713"><ele>602.869</ele><time>2018-11-29T17:48:43Z</time></trkpt><trkpt lat="38.512449" lon="-6.568090"><ele>609.567</ele><time>2018-11-29T17:48:47Z</time></trkpt><trkpt lat="38.512372" lon="-6.568444"><ele>615.582</ele><time>2018-11-29T17:48:50Z</time></trkpt><trkpt lat="38.512320" lon="-6.568700"><ele>616.718</ele><time>2018-11-29T17:48:52Z</time></trkpt><trkpt lat="38.512314" lon="-6.568759"><ele>616.975</ele><time>2018-11-29T17:48:52Z</time></trkpt><trkpt lat="38.512365" lon="-6.568789"><ele>616.928</ele><time>2018-11-29T17:48:53Z</time></trkpt><trkpt lat="38.512481" lon="-6.568751"><ele>617.320</ele><time>2018-11-29T17:48:53Z</time></trkpt><trkpt lat="38.512572" lon="-6.568664"><ele>617.408</ele><time>2018-11-29T17:48:55Z</time></trkpt><trkpt lat="38.512646" lon="-6.568543"><ele>617.550</ele><time>2018-11-29T17:48:56Z</time></trkpt><trkpt lat="38.512704" lon="-6.568437"><ele>618.187</ele><time>2018-11-29T17:48:57Z</time></trkpt><trkpt lat="38.512796" lon="-6.568335"><ele>618.746</ele><time>2018-11-29T17:48:59Z</time></trkpt><trkpt lat="38.512863" lon="-6.568258"><ele>619.360</ele><time>2018-11-29T17:49:00Z</time></trkpt><trkpt lat="38.512989" lon="-6.568087"><ele>621.120</ele><time>2018-11-29T17:49:02Z</time></trkpt><trkpt lat="38.513191" lon="-6.567855"><ele>624.858</ele><time>2018-11-29T17:49:05Z</time></trkpt><trkpt lat="38.513298" lon="-6.567711"><ele>626.523</ele><time>2018-11-29T17:49:06Z</time></trkpt><trkpt lat="38.513421" lon="-6.567556"><ele>628.559</ele><time>2018-11-29T17:49:08Z</time></trkpt><trkpt lat="38.513463" lon="-6.567510"><ele>629.144</ele><time>2018-11-29T17:49:09Z</time></trkpt><trkpt lat="38.513537" lon="-6.567433"><ele>630.505</ele><time>2018-11-29T17:49:10Z</time></trkpt><trkpt lat="38.513708" lon="-6.567240"><ele>633.315</ele><time>2018-11-29T17:49:13Z</time></trkpt><trkpt lat="38.513870" lon="-6.567067"><ele>635.208</ele><time>2018-11-29T17:49:15Z</time></trkpt><trkpt lat="38.513970" lon="-6.566980"><ele>636.237</ele><time>2018-11-29T17:49:16Z</time></trkpt><trkpt lat="38.513993" lon="-6.566967"><ele>636.534</ele><time>2018-11-29T17:49:17Z</time></trkpt><trkpt lat="38.514071" lon="-6.566924"><ele>637.513</ele><time>2018-11-29T17:49:17Z</time></trkpt><trkpt lat="38.514369" lon="-6.566801"><ele>641.087</ele><time>2018-11-29T17:49:21Z</time></trkpt><trkpt lat="38.514532" lon="-6.566762"><ele>641.997</ele><time>2018-11-29T17:49:23Z</time></trkpt><trkpt lat="38.514658" lon="-6.566753"><ele>643.145</ele><time>2018-11-29T17:49:24Z</time></trkpt><trkpt lat="38.514777" lon="-6.566752"><ele>643.980</ele><time>2018-11-29T17:49:26Z</time></trkpt><trkpt lat="38.514852" lon="-6.566763"><ele>645.156</ele><time>2018-11-29T17:49:26Z</time></trkpt><trkpt lat="38.514970" lon="-6.566787"><ele>646.265</ele><time>2018-11-29T17:49:28Z</time></trkpt><trkpt lat="38.515035" lon="-6.566820"><ele>648.168</ele><time>2018-11-29T17:49:28Z</time></trkpt><trkpt lat="38.515095" lon="-6.566848"><ele>649.114</ele><time>2018-11-29T17:49:29Z</time></trkpt><trkpt lat="38.515147" lon="-6.566878"><ele>649.008</ele><time>2018-11-29T17:49:30Z</time></trkpt><trkpt lat="38.515183" lon="-6.566899"><ele>648.919</ele><time>2018-11-29T17:49:30Z</time></trkpt><trkpt lat="38.515210" lon="-6.566913"><ele>648.996</ele><time>2018-11-29T17:49:31Z</time></trkpt><trkpt lat="38.515232" lon="-6.566931"><ele>649.155</ele><time>2018-11-29T17:49:31Z</time></trkpt><trkpt lat="38.515273" lon="-6.566965"><ele>649.549</ele><time>2018-11-29T17:49:31Z</time></trkpt><trkpt lat="38.515309" lon="-6.566994"><ele>649.889</ele><time>2018-11-29T17:49:32Z</time></trkpt><trkpt lat="38.515326" lon="-6.567011"><ele>650.037</ele><time>2018-11-29T17:49:32Z</time></trkpt><trkpt lat="38.515411" lon="-6.567098"><ele>651.042</ele><time>2018-11-29T17:49:33Z</time></trkpt><trkpt lat="38.515462" lon="-6.567164"><ele>651.648</ele><time>2018-11-29T17:49:34Z</time></trkpt><trkpt lat="38.515498" lon="-6.567217"><ele>651.633</ele><time>2018-11-29T17:49:35Z</time></trkpt><trkpt lat="38.515522" lon="-6.567260"><ele>651.623</ele><time>2018-11-29T17:49:35Z</time></trkpt><trkpt lat="38.515554" lon="-6.567330"><ele>651.515</ele><time>2018-11-29T17:49:36Z</time></trkpt><trkpt lat="38.515581" lon="-6.567435"><ele>652.008</ele><time>2018-11-29T17:49:37Z</time></trkpt><trkpt lat="38.515607" lon="-6.567569"><ele>653.726</ele><time>2018-11-29T17:49:38Z</time></trkpt><trkpt lat="38.515622" lon="-6.567668"><ele>655.183</ele><time>2018-11-29T17:49:39Z</time></trkpt><trkpt lat="38.515632" lon="-6.567777"><ele>656.232</ele><time>2018-11-29T17:49:40Z</time></trkpt><trkpt lat="38.515634" lon="-6.567865"><ele>657.296</ele><time>2018-11-29T17:49:41Z</time></trkpt><trkpt lat="38.515634" lon="-6.567939"><ele>658.136</ele><time>2018-11-29T17:49:41Z</time></trkpt><trkpt lat="38.515630" lon="-6.568020"><ele>658.834</ele><time>2018-11-29T17:49:42Z</time></trkpt><trkpt lat="38.515622" lon="-6.568099"><ele>658.549</ele><time>2018-11-29T17:49:43Z</time></trkpt><trkpt lat="38.515606" lon="-6.568163"><ele>658.615</ele><time>2018-11-29T17:49:43Z</time></trkpt><trkpt lat="38.515582" lon="-6.568210"><ele>658.972</ele><time>2018-11-29T17:49:44Z</time></trkpt><trkpt lat="38.515526" lon="-6.568280"><ele>659.813</ele><time>2018-11-29T17:49:45Z</time></trkpt><trkpt lat="38.515457" lon="-6.568340"><ele>659.214</ele><time>2018-11-29T17:49:46Z</time></trkpt><trkpt lat="38.515400" lon="-6.568371"><ele>659.408</ele><time>2018-11-29T17:49:46Z</time></trkpt><trkpt lat="38.515337" lon="-6.568391"><ele>660.150</ele><time>2018-11-29T17:49:47Z</time></trkpt><trkpt lat="38.515289" lon="-6.568408"><ele>660.567</ele><time>2018-11-29T17:49:48Z</time></trkpt><trkpt lat="38.515240" lon="-6.568411"><ele>660.846</ele><time>2018-11-29T17:49:48Z</time></trkpt><trkpt lat="38.515209" lon="-6.568409"><ele>660.850</ele><time>2018-11-29T17:49:48Z</time></trkpt><trkpt lat="38.515183" lon="-6.568400"><ele>661.190</ele><time>2018-11-29T17:49:49Z</time></trkpt><trkpt lat="38.515144" lon="-6.568393"><ele>661.218</ele><time>2018-11-29T17:49:49Z</time></trkpt><trkpt lat="38.515086" lon="-6.568370"><ele>662.043</ele><time>2018-11-29T17:49:50Z</time></trkpt><trkpt lat="38.514991" lon="-6.568323"><ele>663.699</ele><time>2018-11-29T17:49:51Z</time></trkpt><trkpt lat="38.514932" lon="-6.568294"><ele>664.547</ele><time>2018-11-29T17:49:52Z</time></trkpt><trkpt lat="38.514915" lon="-6.568286"><ele>664.829</ele><time>2018-11-29T17:49:52Z</time></trkpt><trkpt lat="38.514865" lon="-6.568261"><ele>665.521</ele><time>2018-11-29T17:49:53Z</time></trkpt><trkpt lat="38.514812" lon="-6.568237"><ele>665.908</ele><time>2018-11-29T17:49:53Z</time></trkpt><trkpt lat="38.514771" lon="-6.568206"><ele>665.947</ele><time>2018-11-29T17:49:54Z</time></trkpt><trkpt lat="38.514719" lon="-6.568161"><ele>666.114</ele><time>2018-11-29T17:49:54Z</time></trkpt><trkpt lat="38.514692" lon="-6.568133"><ele>666.453</ele><time>2018-11-29T17:49:55Z</time></trkpt><trkpt lat="38.514679" lon="-6.568110"><ele>666.847</ele><time>2018-11-29T17:49:55Z</time></trkpt><trkpt lat="38.514618" lon="-6.567973"><ele>669.787</ele><time>2018-11-29T17:49:56Z</time></trkpt><trkpt lat="38.514628" lon="-6.567934"><ele>670.765</ele><time>2018-11-29T17:49:57Z</time></trkpt><trkpt lat="38.514645" lon="-6.567912"><ele>671.230</ele><time>2018-11-29T17:49:57Z</time></trkpt><trkpt lat="38.514683" lon="-6.567927"><ele>671.416</ele><time>2018-11-29T17:49:57Z</time></trkpt><trkpt lat="38.514703" lon="-6.567958"><ele>671.179</ele><time>2018-11-29T17:49:58Z</time></trkpt><trkpt lat="38.514719" lon="-6.567990"><ele>670.405</ele><time>2018-11-29T17:49:58Z</time></trkpt><trkpt lat="38.514749" lon="-6.568077"><ele>668.725</ele><time>2018-11-29T17:49:59Z</time></trkpt><trkpt lat="38.514763" lon="-6.568113"><ele>668.008</ele><time>2018-11-29T17:49:59Z</time></trkpt><trkpt lat="38.514963" lon="-6.568250"><ele>666.970</ele><time>2018-11-29T17:50:02Z</time></trkpt><trkpt lat="38.515092" lon="-6.568309"><ele>665.017</ele><time>2018-11-29T17:50:03Z</time></trkpt><trkpt lat="38.515195" lon="-6.568356"><ele>663.356</ele><time>2018-11-29T17:50:05Z</time></trkpt><trkpt lat="38.515242" lon="-6.568368"><ele>662.970</ele><time>2018-11-29T17:50:05Z</time></trkpt><trkpt lat="38.515312" lon="-6.568353"><ele>662.570</ele><time>2018-11-29T17:50:06Z</time></trkpt><trkpt lat="38.515372" lon="-6.568328"><ele>662.018</ele><time>2018-11-29T17:50:07Z</time></trkpt><trkpt lat="38.515419" lon="-6.568304"><ele>661.883</ele><time>2018-11-29T17:50:07Z</time></trkpt><trkpt lat="38.515471" lon="-6.568275"><ele>661.549</ele><time>2018-11-29T17:50:08Z</time></trkpt><trkpt lat="38.515504" lon="-6.568241"><ele>661.153</ele><time>2018-11-29T17:50:08Z</time></trkpt><trkpt lat="38.515533" lon="-6.568197"><ele>660.804</ele><time>2018-11-29T17:50:09Z</time></trkpt><trkpt lat="38.515557" lon="-6.568147"><ele>660.614</ele><time>2018-11-29T17:50:09Z</time></trkpt><trkpt lat="38.515573" lon="-6.568085"><ele>660.708</ele><time>2018-11-29T17:50:10Z</time></trkpt><trkpt lat="38.515582" lon="-6.568041"><ele>660.978</ele><time>2018-11-29T17:50:10Z</time></trkpt><trkpt lat="38.515594" lon="-6.567991"><ele>660.885</ele><time>2018-11-29T17:50:11Z</time></trkpt><trkpt lat="38.515592" lon="-6.567886"><ele>659.794</ele><time>2018-11-29T17:50:12Z</time></trkpt><trkpt lat="38.515596" lon="-6.567767"><ele>658.148</ele><time>2018-11-29T17:50:13Z</time></trkpt><trkpt lat="38.515566" lon="-6.567589"><ele>656.418</ele><time>2018-11-29T17:50:14Z</time></trkpt><trkpt lat="38.515535" lon="-6.567439"><ele>654.436</ele><time>2018-11-29T17:50:16Z</time></trkpt><trkpt lat="38.515490" lon="-6.567303"><ele>653.791</ele><time>2018-11-29T17:50:17Z</time></trkpt><trkpt lat="38.515471" lon="-6.567256"><ele>653.427</ele><time>2018-11-29T17:50:17Z</time></trkpt><trkpt lat="38.515425" lon="-6.567190"><ele>653.463</ele><time>2018-11-29T17:50:18Z</time></trkpt><trkpt lat="38.515385" lon="-6.567142"><ele>653.344</ele><time>2018-11-29T17:50:19Z</time></trkpt><trkpt lat="38.515308" lon="-6.567063"><ele>652.618</ele><time>2018-11-29T17:50:20Z</time></trkpt><trkpt lat="38.515214" lon="-6.566990"><ele>651.808</ele><time>2018-11-29T17:50:21Z</time></trkpt><trkpt lat="38.515149" lon="-6.566946"><ele>651.529</ele><time>2018-11-29T17:50:22Z</time></trkpt><trkpt lat="38.515037" lon="-6.566880"><ele>650.516</ele><time>2018-11-29T17:50:23Z</time></trkpt><trkpt lat="38.514988" lon="-6.566854"><ele>649.585</ele><time>2018-11-29T17:50:24Z</time></trkpt><trkpt lat="38.514921" lon="-6.566834"><ele>648.799</ele><time>2018-11-29T17:50:25Z</time></trkpt><trkpt lat="38.514853" lon="-6.566824"><ele>648.219</ele><time>2018-11-29T17:50:25Z</time></trkpt><trkpt lat="38.514794" lon="-6.566816"><ele>647.327</ele><time>2018-11-29T17:50:26Z</time></trkpt><trkpt lat="38.514754" lon="-6.566816"><ele>647.082</ele><time>2018-11-29T17:50:26Z</time></trkpt><trkpt lat="38.514637" lon="-6.566817"><ele>645.978</ele><time>2018-11-29T17:50:28Z</time></trkpt><trkpt lat="38.514600" lon="-6.566826"><ele>645.752</ele><time>2018-11-29T17:50:28Z</time></trkpt><trkpt lat="38.514548" lon="-6.566837"><ele>645.453</ele><time>2018-11-29T17:50:29Z</time></trkpt><trkpt lat="38.514508" lon="-6.566847"><ele>645.208</ele><time>2018-11-29T17:50:29Z</time></trkpt><trkpt lat="38.514438" lon="-6.566853"><ele>644.408</ele><time>2018-11-29T17:50:30Z</time></trkpt><trkpt lat="38.514388" lon="-6.566861"><ele>643.898</ele><time>2018-11-29T17:50:30Z</time></trkpt><trkpt lat="38.514333" lon="-6.566878"><ele>643.085</ele><time>2018-11-29T17:50:31Z</time></trkpt><trkpt lat="38.514285" lon="-6.566895"><ele>642.484</ele><time>2018-11-29T17:50:32Z</time></trkpt><trkpt lat="38.514240" lon="-6.566911"><ele>641.878</ele><time>2018-11-29T17:50:32Z</time></trkpt><trkpt lat="38.514223" lon="-6.566916"><ele>641.588</ele><time>2018-11-29T17:50:32Z</time></trkpt><trkpt lat="38.514183" lon="-6.566941"><ele>641.316</ele><time>2018-11-29T17:50:33Z</time></trkpt><trkpt lat="38.514112" lon="-6.566967"><ele>640.111</ele><time>2018-11-29T17:50:34Z</time></trkpt><trkpt lat="38.514063" lon="-6.566985"><ele>639.247</ele><time>2018-11-29T17:50:34Z</time></trkpt><trkpt lat="38.514011" lon="-6.567007"><ele>638.388</ele><time>2018-11-29T17:50:35Z</time></trkpt><trkpt lat="38.513955" lon="-6.567051"><ele>637.724</ele><time>2018-11-29T17:50:36Z</time></trkpt><trkpt lat="38.513917" lon="-6.567081"><ele>637.626</ele><time>2018-11-29T17:50:36Z</time></trkpt><trkpt lat="38.513824" lon="-6.567165"><ele>636.708</ele><time>2018-11-29T17:50:37Z</time></trkpt><trkpt lat="38.513729" lon="-6.567264"><ele>634.891</ele><time>2018-11-29T17:50:39Z</time></trkpt><trkpt lat="38.513674" lon="-6.567327"><ele>634.098</ele><time>2018-11-29T17:50:40Z</time></trkpt><trkpt lat="38.513597" lon="-6.567425"><ele>632.917</ele><time>2018-11-29T17:50:41Z</time></trkpt><trkpt lat="38.513516" lon="-6.567516"><ele>631.391</ele><time>2018-11-29T17:50:42Z</time></trkpt><trkpt lat="38.513377" lon="-6.567685"><ele>629.131</ele><time>2018-11-29T17:50:44Z</time></trkpt><trkpt lat="38.513261" lon="-6.567828"><ele>626.889</ele><time>2018-11-29T17:50:46Z</time></trkpt><trkpt lat="38.513180" lon="-6.567925"><ele>625.294</ele><time>2018-11-29T17:50:47Z</time></trkpt><trkpt lat="38.512977" lon="-6.568187"><ele>621.870</ele><time>2018-11-29T17:50:50Z</time></trkpt><trkpt lat="38.512851" lon="-6.568343"><ele>619.963</ele><time>2018-11-29T17:50:52Z</time></trkpt><trkpt lat="38.512752" lon="-6.568414"><ele>618.844</ele><time>2018-11-29T17:50:54Z</time></trkpt><trkpt lat="38.512697" lon="-6.568540"><ele>618.218</ele><time>2018-11-29T17:50:55Z</time></trkpt><trkpt lat="38.512575" lon="-6.568706"><ele>617.808</ele><time>2018-11-29T17:50:57Z</time></trkpt><trkpt lat="38.512555" lon="-6.568737"><ele>617.679</ele><time>2018-11-29T17:50:57Z</time></trkpt><trkpt lat="38.512525" lon="-6.568759"><ele>617.526</ele><time>2018-11-29T17:50:58Z</time></trkpt><trkpt lat="38.512496" lon="-6.568780"><ele>617.485</ele><time>2018-11-29T17:50:58Z</time></trkpt><trkpt lat="38.512454" lon="-6.568799"><ele>617.289</ele><time>2018-11-29T17:50:58Z</time></trkpt><trkpt lat="38.512422" lon="-6.568824"><ele>617.119</ele><time>2018-11-29T17:50:59Z</time></trkpt><trkpt lat="38.512312" lon="-6.568854"><ele>617.167</ele><time>2018-11-29T17:51:00Z</time></trkpt><trkpt lat="38.512244" lon="-6.568865"><ele>617.952</ele><time>2018-11-29T17:51:01Z</time></trkpt><trkpt lat="38.512214" lon="-6.568883"><ele>618.318</ele><time>2018-11-29T17:51:01Z</time></trkpt><trkpt lat="38.512080" lon="-6.569045"><ele>618.977</ele><time>2018-11-29T17:51:03Z</time></trkpt><trkpt lat="38.511897" lon="-6.569213"><ele>619.861</ele><time>2018-11-29T17:51:06Z</time></trkpt><trkpt lat="38.511830" lon="-6.569260"><ele>620.527</ele><time>2018-11-29T17:51:07Z</time></trkpt><trkpt lat="38.511729" lon="-6.569318"><ele>621.708</ele><time>2018-11-29T17:51:08Z</time></trkpt><trkpt lat="38.511662" lon="-6.569346"><ele>622.530</ele><time>2018-11-29T17:51:09Z</time></trkpt><trkpt lat="38.511571" lon="-6.569375"><ele>623.867</ele><time>2018-11-29T17:51:10Z</time></trkpt><trkpt lat="38.511527" lon="-6.569411"><ele>624.446</ele><time>2018-11-29T17:51:10Z</time></trkpt><trkpt lat="38.511477" lon="-6.569484"><ele>624.820</ele><time>2018-11-29T17:51:11Z</time></trkpt><trkpt lat="38.511344" lon="-6.569658"><ele>625.770</ele><time>2018-11-29T17:51:13Z</time></trkpt><trkpt lat="38.511237" lon="-6.569788"><ele>626.298</ele><time>2018-11-29T17:51:15Z</time></trkpt><trkpt lat="38.511080" lon="-6.569929"><ele>627.013</ele><time>2018-11-29T17:51:17Z</time></trkpt><trkpt lat="38.510992" lon="-6.570027"><ele>627.499</ele><time>2018-11-29T17:51:18Z</time></trkpt><trkpt lat="38.510935" lon="-6.570096"><ele>628.092</ele><time>2018-11-29T17:51:19Z</time></trkpt><trkpt lat="38.510770" lon="-6.570324"><ele>628.673</ele><time>2018-11-29T17:51:22Z</time></trkpt><trkpt lat="38.510655" lon="-6.570540"><ele>630.020</ele><time>2018-11-29T17:51:24Z</time></trkpt><trkpt lat="38.510418" lon="-6.571024"><ele>632.108</ele><time>2018-11-29T17:51:29Z</time></trkpt><trkpt lat="38.510265" lon="-6.571354"><ele>634.292</ele><time>2018-11-29T17:51:32Z</time></trkpt><trkpt lat="38.510127" lon="-6.571685"><ele>636.539</ele><time>2018-11-29T17:51:36Z</time></trkpt><trkpt lat="38.510024" lon="-6.571951"><ele>638.168</ele><time>2018-11-29T17:51:38Z</time></trkpt><trkpt lat="38.509918" lon="-6.572164"><ele>640.182</ele><time>2018-11-29T17:51:40Z</time></trkpt><trkpt lat="38.509891" lon="-6.572219"><ele>640.752</ele><time>2018-11-29T17:51:41Z</time></trkpt><trkpt lat="38.509856" lon="-6.572282"><ele>641.240</ele><time>2018-11-29T17:51:42Z</time></trkpt><trkpt lat="38.509820" lon="-6.572341"><ele>641.765</ele><time>2018-11-29T17:51:42Z</time></trkpt><trkpt lat="38.509796" lon="-6.572388"><ele>642.391</ele><time>2018-11-29T17:51:43Z</time></trkpt><trkpt lat="38.509754" lon="-6.572432"><ele>642.575</ele><time>2018-11-29T17:51:43Z</time></trkpt><trkpt lat="38.509701" lon="-6.572478"><ele>643.228</ele><time>2018-11-29T17:51:44Z</time></trkpt><trkpt lat="38.509658" lon="-6.572509"><ele>643.820</ele><time>2018-11-29T17:51:45Z</time></trkpt><trkpt lat="38.509604" lon="-6.572546"><ele>644.608</ele><time>2018-11-29T17:51:45Z</time></trkpt><trkpt lat="38.509560" lon="-6.572568"><ele>645.030</ele><time>2018-11-29T17:51:46Z</time></trkpt><trkpt lat="38.509505" lon="-6.572587"><ele>645.417</ele><time>2018-11-29T17:51:46Z</time></trkpt><trkpt lat="38.509400" lon="-6.572616"><ele>646.816</ele><time>2018-11-29T17:51:48Z</time></trkpt><trkpt lat="38.509322" lon="-6.572651"><ele>648.130</ele><time>2018-11-29T17:51:49Z</time></trkpt><trkpt lat="38.509215" lon="-6.572693"><ele>649.180</ele><time>2018-11-29T17:51:50Z</time></trkpt><trkpt lat="38.509145" lon="-6.572719"><ele>649.618</ele><time>2018-11-29T17:51:51Z</time></trkpt><trkpt lat="38.509072" lon="-6.572761"><ele>650.453</ele><time>2018-11-29T17:51:52Z</time></trkpt><trkpt lat="38.509016" lon="-6.572804"><ele>651.219</ele><time>2018-11-29T17:51:52Z</time></trkpt><trkpt lat="38.508836" lon="-6.572900"><ele>651.973</ele><time>2018-11-29T17:51:54Z</time></trkpt><trkpt lat="38.508770" lon="-6.572925"><ele>652.585</ele><time>2018-11-29T17:51:55Z</time></trkpt><trkpt lat="38.508720" lon="-6.572942"><ele>652.913</ele><time>2018-11-29T17:51:56Z</time></trkpt><trkpt lat="38.508669" lon="-6.572952"><ele>653.208</ele><time>2018-11-29T17:51:56Z</time></trkpt><trkpt lat="38.508616" lon="-6.572961"><ele>653.420</ele><time>2018-11-29T17:51:57Z</time></trkpt><trkpt lat="38.508519" lon="-6.572971"><ele>653.997</ele><time>2018-11-29T17:51:58Z</time></trkpt><trkpt lat="38.508381" lon="-6.573005"><ele>655.496</ele><time>2018-11-29T17:52:00Z</time></trkpt><trkpt lat="38.508264" lon="-6.573028"><ele>656.990</ele><time>2018-11-29T17:52:01Z</time></trkpt><trkpt lat="38.508227" lon="-6.573030"><ele>657.290</ele><time>2018-11-29T17:52:01Z</time></trkpt><trkpt lat="38.508156" lon="-6.573003"><ele>657.268</ele><time>2018-11-29T17:52:02Z</time></trkpt><trkpt lat="38.508034" lon="-6.572948"><ele>658.533</ele><time>2018-11-29T17:52:04Z</time></trkpt><trkpt lat="38.507964" lon="-6.572909"><ele>659.489</ele><time>2018-11-29T17:52:04Z</time></trkpt><trkpt lat="38.507828" lon="-6.572812"><ele>660.633</ele><time>2018-11-29T17:52:06Z</time></trkpt><trkpt lat="38.507662" lon="-6.572741"><ele>662.923</ele><time>2018-11-29T17:52:08Z</time></trkpt><trkpt lat="38.507486" lon="-6.572674"><ele>665.615</ele><time>2018-11-29T17:52:10Z</time></trkpt><trkpt lat="38.507395" lon="-6.572640"><ele>666.708</ele><time>2018-11-29T17:52:11Z</time></trkpt><trkpt lat="38.507150" lon="-6.572596"><ele>669.916</ele><time>2018-11-29T17:52:14Z</time></trkpt><trkpt lat="38.507092" lon="-6.572584"><ele>670.553</ele><time>2018-11-29T17:52:15Z</time></trkpt><trkpt lat="38.507148" lon="-6.572258"><ele>669.612</ele><time>2018-11-29T17:52:18Z</time></trkpt><trkpt lat="38.507187" lon="-6.571962"><ele>669.996</ele><time>2018-11-29T17:52:20Z</time></trkpt><trkpt lat="38.507210" lon="-6.571644"><ele>670.276</ele><time>2018-11-29T17:52:23Z</time></trkpt><trkpt lat="38.507226" lon="-6.571402"><ele>669.594</ele><time>2018-11-29T17:52:25Z</time></trkpt><trkpt lat="38.507225" lon="-6.571199"><ele>668.569</ele><time>2018-11-29T17:52:27Z</time></trkpt><trkpt lat="38.507229" lon="-6.571022"><ele>667.335</ele><time>2018-11-29T17:52:28Z</time></trkpt><trkpt lat="38.507225" lon="-6.570888"><ele>665.876</ele><time>2018-11-29T17:52:29Z</time></trkpt><trkpt lat="38.507261" lon="-6.570672"><ele>663.290</ele><time>2018-11-29T17:52:31Z</time></trkpt><trkpt lat="38.507287" lon="-6.570489"><ele>660.619</ele><time>2018-11-29T17:52:33Z</time></trkpt><trkpt lat="38.507309" lon="-6.570369"><ele>658.808</ele><time>2018-11-29T17:52:34Z</time></trkpt><trkpt lat="38.507323" lon="-6.570290"><ele>657.660</ele><time>2018-11-29T17:52:35Z</time></trkpt><trkpt lat="38.507323" lon="-6.570227"><ele>656.687</ele><time>2018-11-29T17:52:35Z</time></trkpt><trkpt lat="38.507321" lon="-6.570125"><ele>654.846</ele><time>2018-11-29T17:52:36Z</time></trkpt><trkpt lat="38.507292" lon="-6.569927"><ele>651.070</ele><time>2018-11-29T17:52:38Z</time></trkpt><trkpt lat="38.507270" lon="-6.569807"><ele>648.850</ele><time>2018-11-29T17:52:39Z</time></trkpt><trkpt lat="38.507241" lon="-6.569562"><ele>644.648</ele><time>2018-11-29T17:52:41Z</time></trkpt><trkpt lat="38.507213" lon="-6.569329"><ele>641.283</ele><time>2018-11-29T17:52:43Z</time></trkpt><trkpt lat="38.507199" lon="-6.569234"><ele>639.899</ele><time>2018-11-29T17:52:44Z</time></trkpt><trkpt lat="38.507192" lon="-6.569151"><ele>638.662</ele><time>2018-11-29T17:52:45Z</time></trkpt><trkpt lat="38.507211" lon="-6.569016"><ele>636.583</ele><time>2018-11-29T17:52:46Z</time></trkpt><trkpt lat="38.507274" lon="-6.568744"><ele>633.411</ele><time>2018-11-29T17:52:48Z</time></trkpt><trkpt lat="38.507420" lon="-6.568462"><ele>629.108</ele><time>2018-11-29T17:52:51Z</time></trkpt><trkpt lat="38.507456" lon="-6.568391"><ele>628.099</ele><time>2018-11-29T17:52:52Z</time></trkpt><trkpt lat="38.507625" lon="-6.568089"><ele>623.176</ele><time>2018-11-29T17:52:55Z</time></trkpt><trkpt lat="38.507705" lon="-6.567939"><ele>620.255</ele><time>2018-11-29T17:52:57Z</time></trkpt><trkpt lat="38.507790" lon="-6.567759"><ele>616.589</ele><time>2018-11-29T17:52:59Z</time></trkpt><trkpt lat="38.507985" lon="-6.567427"><ele>608.839</ele><time>2018-11-29T17:53:02Z</time></trkpt><trkpt lat="38.508246" lon="-6.567008"><ele>598.267</ele><time>2018-11-29T17:53:07Z</time></trkpt><trkpt lat="38.508441" lon="-6.566675"><ele>590.442</ele><time>2018-11-29T17:53:11Z</time></trkpt><trkpt lat="38.508674" lon="-6.566258"><ele>579.948</ele><time>2018-11-29T17:53:15Z</time></trkpt><trkpt lat="38.508868" lon="-6.565771"><ele>570.714</ele><time>2018-11-29T17:53:20Z</time></trkpt><trkpt lat="38.508960" lon="-6.565448"><ele>565.854</ele><time>2018-11-29T17:53:23Z</time></trkpt><trkpt lat="38.508972" lon="-6.565351"><ele>564.309</ele><time>2018-11-29T17:53:24Z</time></trkpt><trkpt lat="38.508984" lon="-6.565220"><ele>561.708</ele><time>2018-11-29T17:53:25Z</time></trkpt><trkpt lat="38.509052" lon="-6.565086"><ele>558.854</ele><time>2018-11-29T17:53:26Z</time></trkpt><trkpt lat="38.509092" lon="-6.564984"><ele>556.821</ele><time>2018-11-29T17:53:27Z</time></trkpt><trkpt lat="38.509134" lon="-6.564905"><ele>555.090</ele><time>2018-11-29T17:53:28Z</time></trkpt><trkpt lat="38.509169" lon="-6.564809"><ele>553.174</ele><time>2018-11-29T17:53:29Z</time></trkpt><trkpt lat="38.509169" lon="-6.564699"><ele>553.194</ele><time>2018-11-29T17:53:30Z</time></trkpt><trkpt lat="38.509108" lon="-6.564641"><ele>553.862</ele><time>2018-11-29T17:53:31Z</time></trkpt><trkpt lat="38.509160" lon="-6.564617"><ele>553.257</ele><time>2018-11-29T17:53:31Z</time></trkpt><trkpt lat="38.509187" lon="-6.564582"><ele>553.133</ele><time>2018-11-29T17:53:32Z</time></trkpt><trkpt lat="38.509209" lon="-6.564552"><ele>553.039</ele><time>2018-11-29T17:53:32Z</time></trkpt><trkpt lat="38.509287" lon="-6.564583"><ele>552.401</ele><time>2018-11-29T17:53:33Z</time></trkpt><trkpt lat="38.509350" lon="-6.564575"><ele>551.521</ele><time>2018-11-29T17:53:34Z</time></trkpt><trkpt lat="38.509406" lon="-6.564536"><ele>550.908</ele><time>2018-11-29T17:53:35Z</time></trkpt><trkpt lat="38.509462" lon="-6.564485"><ele>550.356</ele><time>2018-11-29T17:53:35Z</time></trkpt><trkpt lat="38.509491" lon="-6.564434"><ele>550.343</ele><time>2018-11-29T17:53:36Z</time></trkpt><trkpt lat="38.509513" lon="-6.564311"><ele>551.172</ele><time>2018-11-29T17:53:37Z</time></trkpt><trkpt lat="38.509525" lon="-6.564184"><ele>551.466</ele><time>2018-11-29T17:53:38Z</time></trkpt><trkpt lat="38.509537" lon="-6.564069"><ele>551.236</ele><time>2018-11-29T17:53:39Z</time></trkpt><trkpt lat="38.509552" lon="-6.563890"><ele>550.384</ele><time>2018-11-29T17:53:41Z</time></trkpt><trkpt lat="38.509529" lon="-6.563764"><ele>549.989</ele><time>2018-11-29T17:53:42Z</time></trkpt><trkpt lat="38.509499" lon="-6.563658"><ele>549.515</ele><time>2018-11-29T17:53:43Z</time></trkpt><trkpt lat="38.509534" lon="-6.563181"><ele>544.648</ele><time>2018-11-29T17:53:47Z</time></trkpt><trkpt lat="38.509568" lon="-6.562750"><ele>540.761</ele><time>2018-11-29T17:53:51Z</time></trkpt><trkpt lat="38.509592" lon="-6.562455"><ele>537.617</ele><time>2018-11-29T17:53:53Z</time></trkpt><trkpt lat="38.509608" lon="-6.562350"><ele>536.208</ele><time>2018-11-29T17:53:54Z</time></trkpt><trkpt lat="38.509635" lon="-6.562348"><ele>535.777</ele><time>2018-11-29T17:53:54Z</time></trkpt><trkpt lat="38.509671" lon="-6.562400"><ele>535.314</ele><time>2018-11-29T17:53:55Z</time></trkpt><trkpt lat="38.509927" lon="-6.562737"><ele>531.613</ele><time>2018-11-29T17:53:59Z</time></trkpt><trkpt lat="38.510011" lon="-6.562845"><ele>529.467</ele><time>2018-11-29T17:54:01Z</time></trkpt><trkpt lat="38.510173" lon="-6.563010"><ele>527.937</ele><time>2018-11-29T17:54:03Z</time></trkpt><trkpt lat="38.510372" lon="-6.563099"><ele>527.385</ele><time>2018-11-29T17:54:05Z</time></trkpt><trkpt lat="38.510562" lon="-6.563158"><ele>528.360</ele><time>2018-11-29T17:54:07Z</time></trkpt><trkpt lat="38.510731" lon="-6.563235"><ele>530.236</ele><time>2018-11-29T17:54:09Z</time></trkpt><trkpt lat="38.511072" lon="-6.563624"><ele>535.411</ele><time>2018-11-29T17:54:14Z</time></trkpt><trkpt lat="38.511354" lon="-6.563946"><ele>538.821</ele><time>2018-11-29T17:54:19Z</time></trkpt><trkpt lat="38.511440" lon="-6.563997"><ele>539.703</ele><time>2018-11-29T17:54:20Z</time></trkpt><trkpt lat="38.511493" lon="-6.564033"><ele>540.008</ele><time>2018-11-29T17:54:20Z</time></trkpt><trkpt lat="38.511579" lon="-6.564145"><ele>540.894</ele><time>2018-11-29T17:54:22Z</time></trkpt><trkpt lat="38.511620" lon="-6.564261"><ele>542.031</ele><time>2018-11-29T17:54:23Z</time></trkpt><trkpt lat="38.511665" lon="-6.564389"><ele>542.880</ele><time>2018-11-29T17:54:24Z</time></trkpt><trkpt lat="38.511730" lon="-6.564408"><ele>543.484</ele><time>2018-11-29T17:54:25Z</time></trkpt><trkpt lat="38.511780" lon="-6.564368"><ele>543.494</ele><time>2018-11-29T17:54:25Z</time></trkpt><trkpt lat="38.511778" lon="-6.564274"><ele>544.042</ele><time>2018-11-29T17:54:26Z</time></trkpt><trkpt lat="38.511775" lon="-6.564118"><ele>545.127</ele><time>2018-11-29T17:54:28Z</time></trkpt><trkpt lat="38.511789" lon="-6.563941"><ele>546.553</ele><time>2018-11-29T17:54:29Z</time></trkpt><trkpt lat="38.511826" lon="-6.563807"><ele>548.327</ele><time>2018-11-29T17:54:30Z</time></trkpt><trkpt lat="38.511904" lon="-6.563695"><ele>551.468</ele><time>2018-11-29T17:54:32Z</time></trkpt><trkpt lat="38.511987" lon="-6.563563"><ele>554.714</ele><time>2018-11-29T17:54:33Z</time></trkpt><trkpt lat="38.512054" lon="-6.563426"><ele>558.008</ele><time>2018-11-29T17:54:35Z</time></trkpt><trkpt lat="38.512121" lon="-6.563298"><ele>560.925</ele><time>2018-11-29T17:54:36Z</time></trkpt><trkpt lat="38.512185" lon="-6.563172"><ele>563.632</ele><time>2018-11-29T17:54:37Z</time></trkpt><trkpt lat="38.512218" lon="-6.563129"><ele>564.871</ele><time>2018-11-29T17:54:38Z</time></trkpt><trkpt lat="38.512336" lon="-6.563271"><ele>566.935</ele><time>2018-11-29T17:54:40Z</time></trkpt><trkpt lat="38.512435" lon="-6.563378"><ele>568.965</ele><time>2018-11-29T17:54:41Z</time></trkpt><trkpt lat="38.512475" lon="-6.563442"><ele>569.153</ele><time>2018-11-29T17:54:42Z</time></trkpt><trkpt lat="38.512513" lon="-6.563504"><ele>569.078</ele><time>2018-11-29T17:54:42Z</time></trkpt><trkpt lat="38.512547" lon="-6.563569"><ele>569.014</ele><time>2018-11-29T17:54:43Z</time></trkpt><trkpt lat="38.512604" lon="-6.563641"><ele>569.792</ele><time>2018-11-29T17:54:44Z</time></trkpt><trkpt lat="38.512652" lon="-6.563705"><ele>570.373</ele><time>2018-11-29T17:54:45Z</time></trkpt><trkpt lat="38.512704" lon="-6.563782"><ele>570.820</ele><time>2018-11-29T17:54:46Z</time></trkpt><trkpt lat="38.512827" lon="-6.563942"><ele>571.708</ele><time>2018-11-29T17:54:47Z</time></trkpt><trkpt lat="38.512983" lon="-6.563781"><ele>572.682</ele><time>2018-11-29T17:54:48Z</time></trkpt><trkpt lat="38.513065" lon="-6.563764"><ele>571.769</ele><time>2018-11-29T17:54:49Z</time></trkpt><trkpt lat="38.513119" lon="-6.563794"><ele>571.758</ele><time>2018-11-29T17:54:50Z</time></trkpt><trkpt lat="38.513162" lon="-6.563821"><ele>571.732</ele><time>2018-11-29T17:54:51Z</time></trkpt><trkpt lat="38.513199" lon="-6.563901"><ele>571.852</ele><time>2018-11-29T17:54:51Z</time></trkpt><trkpt lat="38.513213" lon="-6.563955"><ele>571.980</ele><time>2018-11-29T17:54:52Z</time></trkpt><trkpt lat="38.513202" lon="-6.564030"><ele>572.935</ele><time>2018-11-29T17:54:53Z</time></trkpt><trkpt lat="38.513164" lon="-6.564081"><ele>574.021</ele><time>2018-11-29T17:54:53Z</time></trkpt><trkpt lat="38.513138" lon="-6.564108"><ele>574.569</ele><time>2018-11-29T17:54:54Z</time></trkpt><trkpt lat="38.513103" lon="-6.564137"><ele>574.504</ele><time>2018-11-29T17:54:54Z</time></trkpt></trkseg></trk></gpx>